| Date Time MST |
Temp °F |
RH % |
DewPt °F |
Wind mph |
Dir ° |
Gust mph |
Dir ° |
Press in Hg |
Solar W/m^2 |
Prec in |
|---|---|---|---|---|---|---|---|---|---|---|
| 2026-05-07 10:20 | 63.3 | 27.4 | 29.1 | 3.1 | 84 | 5.5 | 72 | 24.834 | 858.0 | 0.00 |
| 2026-05-07 10:15 | 62.8 | 29.1 | 30.2 | 2.9 | 9 | 5.1 | 68 | 24.833 | 847.0 | 0.00 |
| 2026-05-07 10:10 | 62.1 | 31.3 | 31.3 | 3.3 | 55 | 5.0 | 57 | 24.835 | 836.0 | 0.00 |
| 2026-05-07 10:05 | 61.5 | 33.4 | 32.4 | 2.8 | 52 | 4.9 | 47 | 24.834 | 830.0 | 0.00 |
| 2026-05-07 10:00 | 60.3 | 34.6 | 32.3 | 3.2 | 353 | 5.2 | 56 | 24.837 | 821.0 | 0.00 |
| 2026-05-07 09:55 | 59.4 | 35.5 | 32.1 | 3.3 | 88 | 5.8 | 142 | 24.837 | 814.0 | 0.00 |
| 2026-05-07 09:50 | 58.5 | 37.7 | 32.8 | 4.1 | 82 | 6.1 | 108 | 24.841 | 810.0 | 0.00 |
| 2026-05-07 09:45 | 58.2 | 35.1 | 30.7 | 4.4 | 110 | 7.4 | 104 | 24.844 | 805.0 | 0.00 |
| 2026-05-07 09:40 | 58.0 | 38.3 | 32.8 | 4.1 | 78 | 7.1 | 72 | 24.847 | 802.0 | 0.00 |
| 2026-05-07 09:35 | 57.5 | 41.0 | 34.0 | 3.7 | 68 | 5.8 | 61 | 24.847 | 793.0 | 0.00 |
| 2026-05-07 09:30 | 56.8 | 39.3 | 32.3 | 2.6 | 43 | 4.8 | 33 | 24.850 | 781.1 | 0.00 |
| 2026-05-07 09:25 | 57.2 | 39.2 | 32.6 | 4.0 | 42 | 6.2 | 27 | 24.847 | 771.8 | 0.00 |
| 2026-05-07 09:20 | 56.0 | 44.6 | 34.8 | 3.4 | 56 | 5.2 | 78 | 24.844 | 769.7 | 0.00 |
| 2026-05-07 09:15 | 55.3 | 42.3 | 32.7 | 3.3 | 134 | 5.2 | 129 | 24.846 | 773.4 | 0.00 |
| 2026-05-07 09:10 | 54.2 | 42.1 | 31.6 | 3.6 | 98 | 5.3 | 120 | 24.847 | 707.0 | 0.00 |
| 2026-05-07 09:05 | 53.5 | 41.5 | 30.7 | 3.7 | 132 | 5.3 | 135 | 24.849 | 499.5 | 0.00 |
| 2026-05-07 09:00 | 52.9 | 44.2 | 31.7 | 1.9 | 168 | 3.2 | 139 | 24.852 | 455.2 | 0.00 |
| 2026-05-07 08:55 | 52.4 | 43.1 | 30.6 | 2.9 | 170 | 4.5 | 142 | 24.853 | 456.5 | 0.00 |
| 2026-05-07 08:50 | 52.0 | 43.5 | 30.5 | 1.6 | 189 | 3.7 | 176 | 24.853 | 414.1 | 0.00 |
| 2026-05-07 08:45 | 51.2 | 50.4 | 33.4 | 0.9 | 220 | 1.8 | 95 | 24.855 | 266.4 | 0.00 |
| 2026-05-07 08:40 | 51.0 | 49.1 | 32.6 | 1.0 | 107 | 1.9 | 104 | 24.854 | 213.5 | 0.00 |
| 2026-05-07 08:35 | 50.8 | 52.5 | 34.1 | 1.2 | 29 | 2.5 | 64 | 24.854 | 225.6 | 0.00 |
| 2026-05-07 08:30 | 50.2 | 51.3 | 33.0 | 0.7 | 256 | 1.8 | 346 | 24.855 | 231.6 | 0.00 |
| 2026-05-07 08:25 | 50.0 | 51.2 | 32.7 | 1.2 | 343 | 1.8 | 343 | 24.858 | 249.3 | 0.00 |
| 2026-05-07 08:20 | 50.2 | 53.7 | 34.1 | 2.4 | 328 | 3.6 | 311 | 24.858 | 253.0 | 0.00 |
| 2026-05-07 08:15 | 50.0 | 48.6 | 31.4 | 0.6 | 303 | 1.9 | 278 | 24.857 | 221.1 | 0.00 |
| 2026-05-07 08:10 | 49.7 | 49.8 | 31.8 | 0.9 | 288 | 1.7 | 350 | 24.858 | 215.0 | 0.00 |
| 2026-05-07 08:05 | 49.6 | 51.9 | 32.6 | 0.5 | 68 | 1.8 | 15 | 24.858 | 243.1 | 0.00 |
| 2026-05-07 08:00 | 48.8 | 48.8 | 30.4 | 1.2 | 294 | 2.8 | 30 | 24.859 | 294.2 | 0.00 |
| 2026-05-07 07:55 | 48.4 | 53.8 | 32.4 | 3.5 | 29 | 5.0 | 359 | 24.857 | 259.3 | 0.00 |
| Date Time MST |
Temp °C |
RH % |
DewPt °C |
Wind m/s |
Dir ° |
Gust m/s |
Dir ° |
Press hPa |
Solar W/m^2 |
Prec mm |
|---|---|---|---|---|---|---|---|---|---|---|
| 2026-05-07 10:20 | 17.4 | 27.4 | -1.6 | 1.4 | 84 | 2.5 | 72 | 840.99 | 858.0 | 0.00 |
| 2026-05-07 10:15 | 17.1 | 29.1 | -1.0 | 1.3 | 9 | 2.3 | 68 | 840.95 | 847.0 | 0.00 |
| 2026-05-07 10:10 | 16.7 | 31.3 | -0.4 | 1.5 | 55 | 2.2 | 57 | 841.00 | 836.0 | 0.00 |
| 2026-05-07 10:05 | 16.4 | 33.4 | 0.2 | 1.2 | 52 | 2.2 | 47 | 840.98 | 830.0 | 0.00 |
| 2026-05-07 10:00 | 15.7 | 34.6 | 0.2 | 1.4 | 353 | 2.3 | 56 | 841.08 | 821.0 | 0.00 |
| 2026-05-07 09:55 | 15.2 | 35.5 | 0.0 | 1.5 | 88 | 2.6 | 142 | 841.09 | 814.0 | 0.00 |
| 2026-05-07 09:50 | 14.7 | 37.7 | 0.5 | 1.8 | 82 | 2.7 | 108 | 841.22 | 810.0 | 0.00 |
| 2026-05-07 09:45 | 14.5 | 35.1 | -0.7 | 2.0 | 110 | 3.3 | 104 | 841.30 | 805.0 | 0.00 |
| 2026-05-07 09:40 | 14.5 | 38.3 | 0.4 | 1.8 | 78 | 3.2 | 72 | 841.42 | 802.0 | 0.00 |
| 2026-05-07 09:35 | 14.2 | 41.0 | 1.1 | 1.6 | 68 | 2.6 | 61 | 841.42 | 793.0 | 0.00 |
| 2026-05-07 09:30 | 13.8 | 39.3 | 0.1 | 1.2 | 43 | 2.1 | 33 | 841.52 | 781.1 | 0.00 |
| 2026-05-07 09:25 | 14.0 | 39.2 | 0.3 | 1.8 | 42 | 2.8 | 27 | 841.41 | 771.8 | 0.00 |
| 2026-05-07 09:20 | 13.3 | 44.6 | 1.5 | 1.5 | 56 | 2.3 | 78 | 841.33 | 769.7 | 0.00 |
| 2026-05-07 09:15 | 12.9 | 42.3 | 0.4 | 1.5 | 134 | 2.3 | 129 | 841.38 | 773.4 | 0.00 |
| 2026-05-07 09:10 | 12.3 | 42.1 | -0.2 | 1.6 | 98 | 2.4 | 120 | 841.42 | 707.0 | 0.00 |
| 2026-05-07 09:05 | 11.9 | 41.5 | -0.7 | 1.7 | 132 | 2.4 | 135 | 841.48 | 499.5 | 0.00 |
| 2026-05-07 09:00 | 11.6 | 44.2 | -0.2 | 0.9 | 168 | 1.4 | 139 | 841.59 | 455.2 | 0.00 |
| 2026-05-07 08:55 | 11.3 | 43.1 | -0.8 | 1.3 | 170 | 2.0 | 142 | 841.60 | 456.5 | 0.00 |
| 2026-05-07 08:50 | 11.1 | 43.5 | -0.8 | 0.7 | 189 | 1.7 | 176 | 841.63 | 414.1 | 0.00 |
| 2026-05-07 08:45 | 10.7 | 50.4 | 0.8 | 0.4 | 220 | 0.8 | 95 | 841.70 | 266.4 | 0.00 |
| 2026-05-07 08:40 | 10.6 | 49.1 | 0.3 | 0.4 | 107 | 0.9 | 104 | 841.65 | 213.5 | 0.00 |
| 2026-05-07 08:35 | 10.5 | 52.5 | 1.2 | 0.6 | 29 | 1.1 | 64 | 841.65 | 225.6 | 0.00 |
| 2026-05-07 08:30 | 10.1 | 51.3 | 0.5 | 0.3 | 256 | 0.8 | 346 | 841.70 | 231.6 | 0.00 |
| 2026-05-07 08:25 | 10.0 | 51.2 | 0.4 | 0.5 | 343 | 0.8 | 343 | 841.78 | 249.3 | 0.00 |
| 2026-05-07 08:20 | 10.1 | 53.7 | 1.1 | 1.1 | 328 | 1.6 | 311 | 841.78 | 253.0 | 0.00 |
| 2026-05-07 08:15 | 10.0 | 48.6 | -0.3 | 0.3 | 303 | 0.9 | 278 | 841.74 | 221.1 | 0.00 |
| 2026-05-07 08:10 | 9.9 | 49.8 | -0.1 | 0.4 | 288 | 0.7 | 350 | 841.78 | 215.0 | 0.00 |
| 2026-05-07 08:05 | 9.8 | 51.9 | 0.3 | 0.2 | 68 | 0.8 | 15 | 841.78 | 243.1 | 0.00 |
| 2026-05-07 08:00 | 9.3 | 48.8 | -0.9 | 0.5 | 294 | 1.3 | 30 | 841.81 | 294.2 | 0.00 |
| 2026-05-07 07:55 | 9.1 | 53.8 | 0.2 | 1.5 | 29 | 2.2 | 359 | 841.76 | 259.3 | 0.00 |